Time;durP1;ratioP1;P1;durP2;ratioP2;P2;SDS_P1;SDS_P2;PMS_P1;PMS_P2;Temp;Humidity;BMP_temperature;BMP_pressure;BME280_temperature;BME280_humidity;BME280_pressure;Samples;Min_cycle;Max_cycle;Signal;HPM_P1;HPM_P2
2023/08/23 00:01:13;;;;;;;;;;;;;;;32.23;38.83;101353.97;5114396;28;19962;-86
2023/08/23 00:03:38;;;;;;;;;;;;;;;32.17;38.80;101354.13;5113066;27;19918;-84
2023/08/23 00:06:03;;;;;;;;;;;;;;;32.14;38.83;101356.94;5128497;27;19920;-85
2023/08/23 00:08:29;;;;;;;;;;;;;;;32.09;38.84;101354.34;5132803;27;19911;-86
2023/08/23 00:10:55;;;;;;;;;;;;;;;32.09;38.71;101358.84;5114269;28;20415;-86
2023/08/23 00:13:21;;;;;;;;;;;;;;;32.08;38.75;101354.38;5127742;27;19916;-85
2023/08/23 00:15:46;;;;;;;;;;;;;;;32.12;38.74;101354.25;5125154;27;19999;-85
2023/08/23 00:18:12;;;;;;;;;;;;;;;32.12;38.89;101356.97;5114062;28;19928;-85
2023/08/23 00:20:37;;;;;;;;;;;;;;;32.01;38.97;101349.13;5116137;27;19919;-85
2023/08/23 00:23:02;;;;;;;;;;;;;;;32.07;38.93;101356.22;5121384;27;20381;-84
2023/08/23 00:25:28;;;;;;;;;;;;;;;32.04;38.91;101353.56;5114462;27;20393;-84
2023/08/23 00:27:53;;;;;;;;;;;;;;;31.97;38.84;101363.63;5128564;27;19911;-84
2023/08/23 00:30:19;;;;;;;;;;;;;;;32.01;38.89;101361.75;5124291;27;19916;-85
2023/08/23 00:32:44;;;;;;;;;;;;;;;31.95;38.81;101368.16;5129086;27;20056;-84
2023/08/23 00:35:17;;;;;;;;;;;;;;;32.00;38.89;101366.25;5125986;27;20381;-85
2023/08/23 00:37:42;;;;;;;;;;;;;;;32.01;38.83;101368.03;5120462;27;19915;-85
2023/08/23 00:40:09;;;;;;;;;;;;;;;32.13;38.56;101361.44;5095549;27;20433;-85
2023/08/23 00:42:35;;;;;;;;;;;;;;;32.05;38.70;101364.34;5118790;27;20311;-86
2023/08/23 00:45:00;;;;;;;;;;;;;;;32.04;38.59;101365.25;5125166;27;19914;-86
2023/08/23 00:47:25;;;;;;;;;;;;;;;32.12;38.65;101364.19;5113299;28;20467;-86
2023/08/23 00:49:51;;;;;;;;;;;;;;;32.04;38.79;101361.66;5095324;28;19919;-85
2023/08/23 00:52:16;;;;;;;;;;;;;;;32.10;38.68;101360.63;5117142;27;19946;-85
2023/08/23 00:54:42;;;;;;;;;;;;;;;32.13;38.53;101363.25;5110505;27;19926;-86
2023/08/23 00:57:10;;;;;;;;;;;;;;;32.04;38.54;101361.66;5117287;27;19921;-85
2023/08/23 00:59:36;;;;;;;;;;;;;;;32.04;38.62;101364.38;5113047;27;19972;-85
2023/08/23 01:02:02;;;;;;;;;;;;;;;32.05;38.68;101364.34;5111902;28;20354;-86
2023/08/23 01:04:27;;;;;;;;;;;;;;;32.01;38.52;101359.94;5104074;27;19911;-86
2023/08/23 01:07:13;;;;;;;;;;;;;;;32.07;38.55;101363.41;5099046;28;19919;-86
2023/08/23 01:09:41;;;;;;;;;;;;;;;32.11;38.50;101357.00;5121694;27;19922;-85
2023/08/23 01:12:11;;;;;;;;;;;;;;;31.95;38.89;101349.25;5115680;27;19998;-85
2023/08/23 01:14:40;;;;;;;;;;;;;;;32.04;38.71;101359.84;5084507;28;20308;-85
2023/08/23 01:17:06;;;;;;;;;;;;;;;31.96;38.57;101367.25;5120490;27;20388;-86
2023/08/23 01:19:37;;;;;;;;;;;;;;;31.89;39.08;101357.50;5127784;27;19935;-85
2023/08/23 01:22:03;;;;;;;;;;;;;;;31.75;39.75;101357.88;5107057;28;19918;-86
2023/08/23 01:24:29;;;;;;;;;;;;;;;31.67;40.08;101353.56;5115775;27;19924;-86
2023/08/23 01:26:54;;;;;;;;;;;;;;;31.62;40.88;101354.59;5112768;28;19919;-86
2023/08/23 01:29:20;;;;;;;;;;;;;;;31.59;40.58;101357.34;5119209;27;20399;-85
2023/08/23 01:31:45;;;;;;;;;;;;;;;31.55;40.84;101357.47;5112964;27;20372;-86
2023/08/23 01:34:13;;;;;;;;;;;;;;;31.56;40.87;101359.22;5116995;27;19954;-85
2023/08/23 01:36:41;;;;;;;;;;;;;;;31.53;41.11;101352.09;5111399;28;19968;-85
2023/08/23 01:39:06;;;;;;;;;;;;;;;31.51;41.35;101353.94;5110816;28;19916;-85
2023/08/23 01:41:32;;;;;;;;;;;;;;;31.49;41.30;101354.91;5118498;27;20430;-85
2023/08/23 01:43:57;;;;;;;;;;;;;;;31.48;41.51;101356.72;5116419;27;19928;-85
2023/08/23 01:46:23;;;;;;;;;;;;;;;31.47;41.57;101354.06;5123590;27;19966;-85
2023/08/23 01:48:48;;;;;;;;;;;;;;;31.44;41.76;101353.22;5097730;28;20399;-85
2023/08/23 01:51:13;;;;;;;;;;;;;;;31.46;41.70;101361.28;5114424;28;20006;-85
2023/08/23 01:53:39;;;;;;;;;;;;;;;31.43;41.78;101350.53;5124912;28;20010;-85
2023/08/23 01:56:04;;;;;;;;;;;;;;;31.44;41.63;101358.59;5121411;28;19911;-85
2023/08/23 01:58:30;;;;;;;;;;;;;;;31.38;41.96;101357.84;5116391;28;19970;-85
2023/08/23 02:00:55;;;;;;;;;;;;;;;31.39;42.12;101359.59;5115219;27;20312;-85
2023/08/23 02:03:21;;;;;;;;;;;;;;;31.38;42.15;101360.53;5111555;28;20400;-85
2023/08/23 02:05:46;;;;;;;;;;;;;;;31.33;42.07;101359.75;5100620;28;19915;-85
2023/08/23 02:08:13;;;;;;;;;;;;;;;31.32;42.17;101349.88;5107384;28;19923;-85
2023/08/23 02:10:40;;;;;;;;;;;;;;;31.30;42.43;101358.00;5126493;28;19918;-84
2023/08/23 02:13:06;;;;;;;;;;;;;;;31.30;42.42;101352.59;5122183;28;20320;-84
2023/08/23 02:15:32;;;;;;;;;;;;;;;31.29;42.48;101353.53;5078897;28;19912;-84
2023/08/23 02:17:57;;;;;;;;;;;;;;;31.29;42.40;101350.84;5123572;28;19918;-85
2023/08/23 02:20:22;;;;;;;;;;;;;;;31.30;42.36;101346.31;5125463;27;20014;-85
2023/08/23 02:22:48;;;;;;;;;;;;;;;31.28;42.45;101353.56;5108356;28;19920;-83
2023/08/23 02:25:13;;;;;;;;;;;;;;;31.22;42.34;101347.41;5119151;28;20454;-84
2023/08/23 02:27:39;;;;;;;;;;;;;;;31.23;42.37;101345.56;5113129;28;19911;-84
2023/08/23 02:30:04;;;;;;;;;;;;;;;31.19;42.55;101339.34;5113161;27;19934;-84
2023/08/23 02:32:30;;;;;;;;;;;;;;;31.21;42.42;101347.44;5094701;28;19920;-84
2023/08/23 02:34:55;;;;;;;;;;;;;;;31.18;42.58;101348.38;5124675;28;19915;-85
2023/08/23 02:37:24;;;;;;;;;;;;;;;31.16;42.64;101347.53;5117329;28;19915;-85
2023/08/23 02:39:52;;;;;;;;;;;;;;;31.14;42.60;101345.81;5096524;28;19998;-85
2023/08/23 02:42:17;;;;;;;;;;;;;;;31.13;42.76;101347.59;5117355;28;19919;-85
2023/08/23 02:44:43;;;;;;;;;;;;;;;31.12;42.77;101348.53;5102113;28;20462;-86
2023/08/23 02:47:08;;;;;;;;;;;;;;;31.10;42.95;101358.47;5091464;28;20353;-85
2023/08/23 02:49:34;;;;;;;;;;;;;;;31.11;42.91;101351.25;5106983;28;19966;-85
2023/08/23 02:51:59;;;;;;;;;;;;;;;31.07;42.94;101350.41;5103726;28;19923;-85
2023/08/23 02:54:24;;;;;;;;;;;;;;;31.04;42.82;101354.06;5104823;28;20478;-85
2023/08/23 02:56:50;;;;;;;;;;;;;;;31.02;42.90;101355.03;5095090;28;19920;-84
2023/08/23 02:59:15;;;;;;;;;;;;;;;31.03;42.79;101355.00;5101680;28;20305;-84
2023/08/23 03:01:42;;;;;;;;;;;;;;;31.02;43.19;101355.91;5076981;28;20392;-85
2023/08/23 03:04:08;;;;;;;;;;;;;;;31.02;43.17;101360.44;5102869;28;20025;-86
2023/08/23 03:06:33;;;;;;;;;;;;;;;31.01;43.00;101358.63;5104506;28;20630;-84
2023/08/23 03:08:59;;;;;;;;;;;;;;;30.97;43.02;101359.66;5094642;28;20444;-84
2023/08/23 03:11:24;;;;;;;;;;;;;;;30.98;43.17;101362.28;5089839;28;19934;-85
2023/08/23 03:13:49;;;;;;;;;;;;;;;30.97;43.23;101367.75;5100720;28;19952;-85
2023/08/23 03:16:15;;;;;;;;;;;;;;;30.93;43.28;101366.91;5094969;28;20373;-85
2023/08/23 03:18:40;;;;;;;;;;;;;;;30.94;43.16;101367.78;5102686;28;20423;-85
2023/08/23 03:21:06;;;;;;;;;;;;;;;30.91;43.17;101368.75;5084326;28;20459;-84
2023/08/23 03:23:31;;;;;;;;;;;;;;;30.89;43.22;101369.72;5095635;28;20381;-84
2023/08/23 03:25:57;;;;;;;;;;;;;;;30.88;43.24;101362.53;5099898;28;20335;-84
2023/08/23 03:28:22;;;;;;;;;;;;;;;30.87;43.41;101363.47;5112291;28;19916;-84
2023/08/23 03:30:48;;;;;;;;;;;;;;;30.85;43.31;101369.72;5102105;28;20609;-85
2023/08/23 03:33:13;;;;;;;;;;;;;;;30.83;43.30;101373.38;5108555;28;19920;-84
2023/08/23 03:35:38;;;;;;;;;;;;;;;30.84;43.41;101369.78;5096413;27;19920;-84
2023/08/23 03:38:04;;;;;;;;;;;;;;;30.85;43.30;101366.16;5105034;28;19923;-85
2023/08/23 03:40:33;;;;;;;;;;;;;;;30.84;43.41;101375.19;5102078;28;20365;-84
2023/08/23 03:43:00;;;;;;;;;;;;;;;30.80;43.36;101370.75;5105561;28;19923;-85
2023/08/23 03:45:26;;;;;;;;;;;;;;;30.79;43.23;101374.38;5102396;28;19938;-84
2023/08/23 03:47:51;;;;;;;;;;;;;;;30.77;43.42;101368.13;5099268;28;20420;-85
2023/08/23 03:50:17;;;;;;;;;;;;;;;30.77;43.44;101371.69;5104090;28;20396;-84
2023/08/23 03:52:42;;;;;;;;;;;;;;;30.74;43.63;101371.75;5102549;28;20300;-84
2023/08/23 03:55:07;;;;;;;;;;;;;;;30.73;43.51;101377.19;5099009;28;19923;-83
2023/08/23 03:57:33;;;;;;;;;;;;;;;30.74;43.54;101370.88;5079674;28;19919;-86
2023/08/23 03:59:59;;;;;;;;;;;;;;;30.70;43.62;101371.88;5104438;28;20006;-88
2023/08/23 04:02:24;;;;;;;;;;;;;;;30.68;43.66;101369.19;5106121;28;19935;-87
2023/08/23 04:04:51;;;;;;;;;;;;;;;30.66;43.74;101371.03;5091685;28;19912;-89
2023/08/23 04:07:17;;;;;;;;;;;;;;;30.69;43.78;101372.75;5083011;28;19924;-88
2023/08/23 04:09:42;;;;;;;;;;;;;;;30.67;43.68;101370.13;5093301;28;20344;-87
2023/08/23 04:12:08;;;;;;;;;;;;;;;30.69;43.74;101373.66;5102757;28;20408;-89
2023/08/23 04:14:34;;;;;;;;;;;;;;;30.62;43.81;101380.09;5089960;28;19923;-88
2023/08/23 04:16:59;;;;;;;;;;;;;;;30.66;43.62;101379.13;5097923;28;19919;-87
2023/08/23 04:19:25;;;;;;;;;;;;;;;30.57;43.92;101388.28;5099691;28;19916;-87
2023/08/23 04:21:51;;;;;;;;;;;;;;;30.57;43.83;101388.28;5089572;28;19930;-86
2023/08/23 04:24:16;;;;;;;;;;;;;;;30.55;44.01;101390.13;5104741;28;19934;-89
2023/08/23 04:26:41;;;;;;;;;;;;;;;30.52;43.97;101387.47;5076094;28;19974;-88
2023/08/23 04:29:07;;;;;;;;;;;;;;;30.56;43.97;101386.47;5104427;28;19912;-88
2023/08/23 04:31:32;;;;;;;;;;;;;;;30.56;43.83;101381.09;5094914;28;20458;-88
2023/08/23 04:33:58;;;;;;;;;;;;;;;30.53;43.95;101375.78;5096007;28;20396;-86
2023/08/23 04:36:23;;;;;;;;;;;;;;;30.53;43.84;101381.16;5108880;28;20004;-85
2023/08/23 04:38:48;;;;;;;;;;;;;;;30.50;44.02;101383.94;5106405;28;19996;-85
2023/08/23 04:41:14;;;;;;;;;;;;;;;30.51;43.90;101383.00;5093901;28;20006;-85
2023/08/23 04:43:41;;;;;;;;;;;;;;;30.48;44.02;101390.25;5096800;28;20317;-94
2023/08/23 04:46:16;;;;;;;;;;;;;;;30.41;43.85;101389.47;5077258;28;20021;-92
2023/08/23 04:48:45;;;;;;;;;;;;;;;30.44;44.13;101392.13;5077346;28;19918;-92
2023/08/23 04:51:11;;;;;;;;;;;;;;;30.50;43.91;101385.72;5101973;28;19920;-91
2023/08/23 04:53:39;;;;;;;;;;;;;;;30.44;44.18;101384.94;5112390;28;19920;-89
2023/08/23 04:56:04;;;;;;;;;;;;;;;30.46;44.19;101384.00;5088450;28;20018;-89
2023/08/23 04:58:31;;;;;;;;;;;;;;;30.46;44.23;101382.22;5079454;28;19966;-92
2023/08/23 05:00:59;;;;;;;;;;;;;;;30.46;44.12;101384.00;5080903;28;19916;-91
2023/08/23 05:03:29;;;;;;;;;;;;;;;30.42;44.20;101373.28;5084118;28;19975;-89
2023/08/23 05:05:54;;;;;;;;;;;;;;;30.40;44.25;101374.25;5106009;28;19931;-87
2023/08/23 05:08:19;;;;;;;;;;;;;;;30.40;44.45;101380.50;5088764;28;19916;-89
2023/08/23 05:10:45;;;;;;;;;;;;;;;30.42;44.27;101383.19;5104341;28;19916;-89
2023/08/23 05:13:10;;;;;;;;;;;;;;;30.41;44.42;101381.38;5102705;28;19969;-89
2023/08/23 05:15:36;;;;;;;;;;;;;;;30.39;44.12;101378.72;5102842;28;20270;-86
2023/08/23 05:18:04;;;;;;;;;;;;;;;30.36;44.19;101376.09;5092549;28;20320;-90
2023/08/23 05:20:30;;;;;;;;;;;;;;;30.36;44.25;101378.78;5109139;28;19915;-87
2023/08/23 05:22:55;;;;;;;;;;;;;;;30.36;44.33;101383.28;5100755;28;19920;-86
2023/08/23 05:25:21;;;;;;;;;;;;;;;30.35;44.45;101379.69;5103379;28;22555;-87
2023/08/23 05:27:46;;;;;;;;;;;;;;;30.36;44.31;101375.22;5088115;28;19919;-90
2023/08/23 05:30:14;;;;;;;;;;;;;;;30.37;44.08;101383.25;5080853;28;20320;-90
2023/08/23 05:32:41;;;;;;;;;;;;;;;30.35;44.10;101377.00;5081096;28;19916;-89
2023/08/23 05:35:07;;;;;;;;;;;;;;;30.37;44.35;101379.66;5098241;28;19922;-89
2023/08/23 05:37:32;;;;;;;;;;;;;;;30.36;44.09;101378.78;5079973;28;20023;-89
2023/08/23 05:39:58;;;;;;;;;;;;;;;30.35;44.15;101387.78;5080735;28;19916;-89
2023/08/23 05:42:23;;;;;;;;;;;;;;;30.36;44.25;101383.28;5096924;28;20378;-88
2023/08/23 05:44:49;;;;;;;;;;;;;;;30.35;44.24;101381.50;5100408;28;20026;-87
2023/08/23 05:47:15;;;;;;;;;;;;;;;30.34;44.31;101377.94;5106571;28;19927;-89
2023/08/23 05:49:42;;;;;;;;;;;;;;;30.34;44.33;101383.31;5102968;28;20397;-89
2023/08/23 05:52:08;;;;;;;;;;;;;;;30.33;44.50;101380.63;5106774;28;20044;-88
2023/08/23 05:54:33;;;;;;;;;;;;;;;30.33;44.46;101378.88;5082426;28;19974;-88
2023/08/23 05:56:59;;;;;;;;;;;;;;;30.32;44.52;101378.88;5099497;28;19920;-88
2023/08/23 05:59:25;;;;;;;;;;;;;;;30.34;44.37;101382.44;5084179;28;19916;-88
2023/08/23 06:01:51;;;;;;;;;;;;;;;30.34;44.41;101380.63;5096067;28;20006;-89
2023/08/23 06:04:16;;;;;;;;;;;;;;;30.34;44.71;101385.13;5097587;28;19922;-89
2023/08/23 06:06:42;;;;;;;;;;;;;;;30.34;44.89;101382.44;5080606;28;20329;-88
2023/08/23 06:09:08;;;;;;;;;;;;;;;30.32;44.90;101384.28;5097019;28;19939;-89
2023/08/23 06:11:33;;;;;;;;;;;;;;;30.31;44.92;101386.09;5090916;28;20393;-89
2023/08/23 06:14:00;;;;;;;;;;;;;;;30.33;44.70;101388.72;5085275;28;20381;-87
2023/08/23 06:16:25;;;;;;;;;;;;;;;30.33;44.82;101392.34;5104325;28;20011;-87
2023/08/23 06:18:51;;;;;;;;;;;;;;;30.31;44.94;101387.88;5106202;28;20014;-89
2023/08/23 06:21:16;;;;;;;;;;;;;;;30.31;45.08;101398.63;5107145;28;20380;-90
2023/08/23 06:23:43;;;;;;;;;;;;;;;30.32;45.47;101395.03;5076586;28;20507;-89
2023/08/23 06:26:09;;;;;;;;;;;;;;;30.33;45.61;101399.50;5103364;28;19976;-89
2023/08/23 06:28:34;;;;;;;;;;;;;;;30.31;45.67;101394.16;5091273;28;19920;-88
2023/08/23 06:31:00;;;;;;;;;;;;;;;30.31;45.55;101395.94;5109665;28;20542;-87
2023/08/23 06:33:27;;;;;;;;;;;;;;;30.31;45.59;101401.34;5113288;28;20503;-88
2023/08/23 06:35:52;;;;;;;;;;;;;;;30.31;45.59;101407.63;5101338;27;19915;-89
2023/08/23 06:38:17;;;;;;;;;;;;;;;30.31;45.42;101417.50;5089320;28;19916;-88
2023/08/23 06:40:43;;;;;;;;;;;;;;;30.31;45.31;101413.03;5099521;28;19920;-89
2023/08/23 06:43:16;;;;;;;;;;;;;;;30.31;45.50;101414.81;5111681;28;19924;-88
2023/08/23 06:45:45;;;;;;;;;;;;;;;30.30;45.50;101415.75;5107457;27;19924;-91
2023/08/23 06:48:11;;;;;;;;;;;;;;;30.26;45.52;101406.78;5111208;27;19916;-88
2023/08/23 06:50:37;;;;;;;;;;;;;;;30.28;45.40;101415.72;5122284;27;19998;-88
2023/08/23 06:53:02;;;;;;;;;;;;;;;30.28;45.32;101417.53;5117056;27;19916;-92
2023/08/23 06:55:28;;;;;;;;;;;;;;;30.30;45.44;101415.75;5096496;27;19984;-87
2023/08/23 06:57:53;;;;;;;;;;;;;;;30.26;45.43;101414.88;5139612;27;20340;-88
2023/08/23 07:00:19;;;;;;;;;;;;;;;30.25;45.38;101415.78;5128942;27;20487;-88
2023/08/23 07:02:44;;;;;;;;;;;;;;;30.24;45.27;101414.88;5121835;27;19920;-88
2023/08/23 07:05:10;;;;;;;;;;;;;;;30.24;45.36;101414.00;5121078;27;20358;-87
2023/08/23 07:07:35;;;;;;;;;;;;;;;30.25;45.27;101421.19;5115487;28;19916;-87
2023/08/23 07:10:01;;;;;;;;;;;;;;;30.23;45.12;101418.50;5097142;27;19922;-87
2023/08/23 07:12:28;;;;;;;;;;;;;;;30.21;45.10;101411.38;5101889;27;19922;-89
2023/08/23 07:14:53;;;;;;;;;;;;;;;30.20;44.90;101404.19;5102322;27;19912;-89
2023/08/23 07:17:18;;;;;;;;;;;;;;;30.20;45.05;101410.47;5123101;27;20557;-88
2023/08/23 07:19:48;;;;;;;;;;;;;;;30.16;45.02;101406.06;5103302;27;19927;-87
2023/08/23 07:22:13;;;;;;;;;;;;;;;30.18;44.88;101404.25;5124940;27;19912;-89
2023/08/23 07:24:40;;;;;;;;;;;;;;;30.15;44.89;101404.28;5116377;27;19919;-88
2023/08/23 07:27:05;;;;;;;;;;;;;;;30.13;44.78;101408.81;5112603;27;19942;-88
2023/08/23 07:29:31;;;;;;;;;;;;;;;30.16;44.83;101400.69;5120800;27;20400;-88
2023/08/23 07:31:57;;;;;;;;;;;;;;;30.12;44.99;101396.25;5120954;27;19916;-89
2023/08/23 07:34:22;;;;;;;;;;;;;;;30.11;44.95;101404.34;5124064;27;19915;-88
2023/08/23 07:36:48;;;;;;;;;;;;;;;30.10;45.03;101399.88;5095448;28;20500;-89
2023/08/23 07:39:13;;;;;;;;;;;;;;;30.11;44.86;101407.06;5118420;27;20440;-90
2023/08/23 07:41:38;;;;;;;;;;;;;;;30.11;44.88;101415.13;5101730;27;19915;-89
2023/08/23 07:44:04;;;;;;;;;;;;;;;30.11;44.76;101413.31;5101315;27;19952;-88
2023/08/23 07:46:29;;;;;;;;;;;;;;;30.08;44.80;101418.78;5102718;27;20380;-89
2023/08/23 07:48:55;;;;;;;;;;;;;;;30.08;44.91;101410.69;5119065;27;20395;-88
2023/08/23 07:51:20;;;;;;;;;;;;;;;30.08;44.79;101416.09;5131433;27;19947;-88
2023/08/23 07:53:48;;;;;;;;;;;;;;;30.06;44.81;101417.91;5113807;27;20006;-89
2023/08/23 07:56:13;;;;;;;;;;;;;;;30.07;44.63;101429.56;5097062;28;20423;-89
2023/08/23 07:58:41;;;;;;;;;;;;;;;30.07;44.88;101416.97;5121816;27;19916;-89
2023/08/23 08:01:06;;;;;;;;;;;;;;;30.06;44.90;101419.69;5105715;27;19919;-88
2023/08/23 08:03:32;;;;;;;;;;;;;;;30.04;45.24;101417.94;5112068;27;19923;-87
2023/08/23 08:05:58;;;;;;;;;;;;;;;30.08;44.63;101417.88;5121286;27;20002;-87
2023/08/23 08:08:24;;;;;;;;;;;;;;;30.02;44.58;101422.44;5096443;27;20397;-85
2023/08/23 08:10:49;;;;;;;;;;;;;;;30.03;43.63;101408.06;5130412;27;19922;-87
2023/08/23 08:13:15;;;;;;;;;;;;;;;30.07;43.00;101410.72;5137186;27;19915;-87
2023/08/23 08:15:41;;;;;;;;;;;;;;;30.05;42.88;101410.72;5122696;27;20288;-87
2023/08/23 08:18:06;;;;;;;;;;;;;;;30.04;42.16;101406.28;5129432;27;19915;-87
2023/08/23 08:20:32;;;;;;;;;;;;;;;30.07;42.63;101410.72;5109651;27;19915;-86
2023/08/23 08:22:58;;;;;;;;;;;;;;;30.04;41.79;101412.53;5127719;27;20381;-88
2023/08/23 08:25:24;;;;;;;;;;;;;;;30.06;42.00;101406.22;5105496;27;19920;-88
2023/08/23 08:27:53;;;;;;;;;;;;;;;30.06;41.01;101409.84;5110631;27;19998;-87
2023/08/23 08:30:18;;;;;;;;;;;;;;;30.05;42.06;101405.34;5127299;27;19972;-86
2023/08/23 08:32:44;;;;;;;;;;;;;;;30.04;41.10;101404.47;5129478;27;19923;-88
2023/08/23 08:35:10;;;;;;;;;;;;;;;30.04;41.66;101407.16;5118132;27;19911;-80
2023/08/23 08:37:35;;;;;;;;;;;;;;;30.04;41.71;101409.84;5137236;27;19922;-87
2023/08/23 08:40:01;;;;;;;;;;;;;;;30.04;41.27;101404.47;5098372;27;20014;-85
2023/08/23 08:42:26;;;;;;;;;;;;;;;30.02;41.54;101405.41;5111238;27;19912;-88
2023/08/23 08:44:51;;;;;;;;;;;;;;;30.03;40.44;101408.06;5124808;27;20380;-86
2023/08/23 08:47:17;;;;;;;;;;;;;;;30.02;40.91;101406.28;5104880;27;19926;-86
2023/08/23 08:49:42;;;;;;;;;;;;;;;30.02;40.65;101405.41;5127716;27;19915;-86
2023/08/23 08:52:08;;;;;;;;;;;;;;;30.02;40.80;101405.41;5126948;27;20456;-85
2023/08/23 08:54:33;;;;;;;;;;;;;;;30.01;40.27;101393.75;5130719;27;20335;-86
2023/08/23 08:56:59;;;;;;;;;;;;;;;30.00;40.45;101397.34;5113253;27;20388;-87
2023/08/23 08:59:25;;;;;;;;;;;;;;;29.99;40.23;101391.97;5123727;27;19920;-86
2023/08/23 09:01:52;;;;;;;;;;;;;;;29.99;40.19;101386.59;5118974;27;19916;-87
2023/08/23 09:04:17;;;;;;;;;;;;;;;30.01;39.75;101387.44;5099828;28;19916;-85
2023/08/23 09:06:45;;;;;;;;;;;;;;;29.99;39.38;101391.97;5124325;27;19942;-88
2023/08/23 09:09:11;;;;;;;;;;;;;;;29.98;39.33;101388.41;5111476;27;19912;-87
2023/08/23 09:11:36;;;;;;;;;;;;;;;29.96;40.36;101381.28;5093611;27;19963;-86
2023/08/23 09:14:18;;;;;;;;;;;;;;;29.91;40.09;101381.34;5121391;27;19916;-87
2023/08/23 09:16:44;;;;;;;;;;;;;;;29.94;40.78;101381.28;5110480;28;19999;-88
2023/08/23 09:19:11;;;;;;;;;;;;;;;29.92;40.40;101377.72;5113148;27;19918;-88
2023/08/23 09:21:41;;;;;;;;;;;;;;;29.90;40.69;101376.88;5121277;27;19916;-87
2023/08/23 09:24:06;;;;;;;;;;;;;;;29.89;40.72;101375.09;5123189;27;19916;-87
2023/08/23 09:26:31;;;;;;;;;;;;;;;29.92;40.87;101380.41;5110962;28;19916;-86
2023/08/23 09:28:57;;;;;;;;;;;;;;;29.92;41.22;101372.34;5115892;27;20303;-88
2023/08/23 09:31:22;;;;;;;;;;;;;;;29.93;41.18;101371.44;5110240;27;19916;-88
2023/08/23 09:33:48;;;;;;;;;;;;;;;29.93;41.38;101371.44;5117308;27;19916;-86
2023/08/23 09:36:23;;;;;;;;;;;;;;;29.94;41.54;101373.22;5104113;27;20312;-87
2023/08/23 09:38:48;;;;;;;;;;;;;;;29.97;41.39;101370.47;5101080;28;19993;-88
2023/08/23 09:41:14;;;;;;;;;;;;;;;29.97;41.57;101365.09;5130593;27;20405;-86
2023/08/23 09:43:39;;;;;;;;;;;;;;;29.98;41.86;101377.63;5116808;27;19920;-86
2023/08/23 09:46:04;;;;;;;;;;;;;;;29.97;41.65;101375.88;5112941;27;20403;-87
2023/08/23 09:48:30;;;;;;;;;;;;;;;29.97;41.77;101361.47;5101568;28;20278;-87
2023/08/23 09:50:55;;;;;;;;;;;;;;;29.98;41.82;101376.75;5071560;28;20420;-87
2023/08/23 09:53:22;;;;;;;;;;;;;;;29.97;41.76;101372.25;5094482;28;20370;-87
2023/08/23 09:55:48;;;;;;;;;;;;;;;29.96;41.83;101368.69;5091506;28;19916;-87
2023/08/23 09:58:13;;;;;;;;;;;;;;;29.96;41.77;101367.81;5102274;28;19981;-88
2023/08/23 10:00:38;;;;;;;;;;;;;;;29.96;42.24;101374.06;5103953;28;19930;-87
2023/08/23 10:03:04;;;;;;;;;;;;;;;29.97;42.12;101353.41;5103590;28;19916;-87
2023/08/23 10:05:29;;;;;;;;;;;;;;;29.98;42.16;101363.28;5094143;28;20419;-87
2023/08/23 10:07:55;;;;;;;;;;;;;;;29.96;42.65;101359.72;5082956;28;19919;-87
2023/08/23 10:10:21;;;;;;;;;;;;;;;29.96;41.97;101357.91;5109727;28;19998;-88
2023/08/23 10:12:51;;;;;;;;;;;;;;;29.96;42.06;101355.22;5089689;28;19919;-85
2023/08/23 10:15:16;;;;;;;;;;;;;;;29.97;41.93;101354.31;5087870;28;19920;-86
2023/08/23 10:17:43;;;;;;;;;;;;;;;29.97;42.51;101357.00;5106368;28;19997;-87
2023/08/23 10:20:08;;;;;;;;;;;;;;;29.95;42.67;101357.94;5097947;28;20468;-89
2023/08/23 10:22:34;;;;;;;;;;;;;;;29.96;42.66;101354.34;5097205;28;19916;-87
2023/08/23 10:24:59;;;;;;;;;;;;;;;29.96;42.71;101349.84;5099307;28;19916;-87
2023/08/23 10:27:25;;;;;;;;;;;;;;;29.99;42.62;101356.97;5082866;28;19931;-87
2023/08/23 10:29:51;;;;;;;;;;;;;;;29.96;42.76;101344.44;5109188;27;19923;-87
2023/08/23 10:32:17;;;;;;;;;;;;;;;29.96;42.61;101351.63;5089531;28;20006;-87
2023/08/23 10:34:42;;;;;;;;;;;;;;;29.97;42.49;101346.25;5096224;28;19924;-88
2023/08/23 10:37:17;;;;;;;;;;;;;;;29.98;42.54;101352.50;5099705;28;19912;-86
2023/08/23 10:40:09;;;;;;;;;;;;;;;29.96;42.78;101347.13;5088156;28;19923;-90
2023/08/23 10:42:34;;;;;;;;;;;;;;;29.98;42.97;101347.13;5088491;27;19941;-89
2023/08/23 10:45:04;;;;;;;;;;;;;;;29.99;43.18;101343.50;5086527;28;19915;-88
2023/08/23 10:47:30;;;;;;;;;;;;;;;29.97;43.36;101348.94;5091322;28;19927;-90
2023/08/23 10:49:57;;;;;;;;;;;;;;;29.97;43.57;101339.94;5090453;28;19915;-86
2023/08/23 10:52:23;;;;;;;;;;;;;;;29.98;43.56;101333.66;5081692;28;19923;-90
2023/08/23 10:54:48;;;;;;;;;;;;;;;29.98;43.53;101339.03;5076754;28;19916;-88
2023/08/23 10:57:14;;;;;;;;;;;;;;;29.97;43.53;101332.78;5077199;28;20503;-88
2023/08/23 10:59:40;;;;;;;;;;;;;;;29.99;43.51;101330.94;5087360;28;19918;-90
2023/08/23 11:02:12;;;;;;;;;;;;;;;29.99;43.68;101327.34;5088522;28;19972;-89
2023/08/23 11:04:39;;;;;;;;;;;;;;;30.01;43.64;101322.81;5116884;28;19916;-90
2023/08/23 11:07:05;;;;;;;;;;;;;;;29.97;43.77;101321.09;5100005;28;19920;-89
2023/08/23 11:09:31;;;;;;;;;;;;;;;29.99;43.83;101321.94;5101116;28;20462;-90
2023/08/23 11:11:56;;;;;;;;;;;;;;;30.01;43.63;101317.44;5100473;28;19912;-90
2023/08/23 11:14:21;;;;;;;;;;;;;;;30.02;43.80;101316.53;5085642;28;19912;-88
2023/08/23 11:16:47;;;;;;;;;;;;;;;30.03;43.68;101315.59;5078706;28;20340;-88
2023/08/23 11:19:13;;;;;;;;;;;;;;;30.03;43.77;101305.69;5110827;28;19916;-87
2023/08/23 11:21:39;;;;;;;;;;;;;;;30.05;43.85;101313.75;5099460;28;19939;-86
2023/08/23 11:24:05;;;;;;;;;;;;;;;30.06;43.68;101309.25;5122782;27;20372;-88
2023/08/23 11:26:37;;;;;;;;;;;;;;;30.06;43.49;101299.41;5081115;28;20007;-88
2023/08/23 11:29:05;;;;;;;;;;;;;;;30.09;43.21;101295.75;5083569;28;19919;-84
2023/08/23 11:31:34;;;;;;;;;;;;;;;30.09;43.38;101290.34;5075823;28;19916;-84
2023/08/23 11:34:07;;;;;;;;;;;;;;;30.11;43.36;101284.03;5084096;28;19912;-85
2023/08/23 11:36:33;;;;;;;;;;;;;;;30.11;43.36;101288.53;5100557;27;19959;-86
2023/08/23 11:39:06;;;;;;;;;;;;;;;30.14;43.27;101292.06;5102237;28;19916;-85
2023/08/23 11:41:33;;;;;;;;;;;;;;;30.16;43.22;101289.31;5092573;28;19970;-85
2023/08/23 11:44:08;;;;;;;;;;;;;;;30.14;43.08;101275.91;5098140;27;19928;-85
2023/08/23 11:46:40;;;;;;;;;;;;;;;30.17;43.18;101274.94;5131239;27;19976;-84
2023/08/23 11:49:06;;;;;;;;;;;;;;;30.18;43.04;101280.31;5098106;28;19942;-87
2023/08/23 11:51:44;;;;;;;;;;;;;;;30.20;43.03;101274.88;5125740;27;19927;-85
2023/08/23 11:54:10;;;;;;;;;;;;;;;30.20;43.03;101280.25;5119195;27;20409;-84
2023/08/23 11:56:38;;;;;;;;;;;;;;;30.21;43.07;101273.97;5131172;27;20408;-86
2023/08/23 11:59:04;;;;;;;;;;;;;;;30.20;43.24;101278.44;5107579;27;20007;-86
2023/08/23 12:01:29;;;;;;;;;;;;;;;30.21;43.11;101277.53;5102767;27;19954;-86
2023/08/23 12:03:55;;;;;;;;;;;;;;;30.22;43.24;101275.72;5132344;27;19951;-87
2023/08/23 12:06:20;;;;;;;;;;;;;;;30.23;43.07;101277.53;5128454;27;20285;-86
2023/08/23 12:08:46;;;;;;;;;;;;;;;30.22;43.08;101271.22;5103447;27;20052;-87
2023/08/23 12:11:11;;;;;;;;;;;;;;;30.24;42.97;101268.50;5105657;27;20384;-86
2023/08/23 12:13:37;;;;;;;;;;;;;;;30.22;43.27;101264.94;5111347;27;19915;-87
2023/08/23 12:16:06;;;;;;;;;;;;;;;30.21;43.22;101264.06;5112421;27;19912;-87
2023/08/23 12:18:34;;;;;;;;;;;;;;;30.23;43.10;101261.34;5106113;27;20304;-86
2023/08/23 12:21:00;;;;;;;;;;;;;;;30.23;43.21;101261.34;5110468;27;20094;-85
2023/08/23 12:23:26;;;;;;;;;;;;;;;30.24;43.28;101263.13;5117797;27;20425;-85
2023/08/23 12:25:51;;;;;;;;;;;;;;;30.23;43.20;101258.66;5102617;27;19911;-85
2023/08/23 12:28:17;;;;;;;;;;;;;;;30.23;43.45;101255.97;5122849;27;20420;-85
2023/08/23 12:30:42;;;;;;;;;;;;;;;30.24;43.24;101257.72;5106128;27;20306;-85